Pays
Station

 

Conditions  météo  pour  Vestmannaeyjar  -  Islande    Islande

  
5 °C
    
 
 

METAR pour Vestmannaeyjar :

BIVM 211800Z 26021G31KT 9999 VCSH FEW025 SCT035 05/01 Q1004

 

Voici le bulletin pour Vestmannaeyjar - Islande.
 
Le bulletin a été fait il y a 5 heures et 2 minutes, à 18:00 UTC .
Le vent soufflait à la vitesse de 10.8 mètres par seconde avec des rafales jusqu'à 15.9 mètres par seconde de Ouest (260°).
 
La température était de 5 °C, avec un point de rosée à 1 °C.
La pression atmosphérique était de 1004 hPa.
L'humidité relative était de 75.3%.
 
Il y avait 1 à 2/8ème de nébulosité à une hauteur de 762 mètres et 3 à 4/8ème de nébulosité à une hauteur de 1067 mètres.
 
La visibilité globale était de supérieure à 10 kilomètres.
 
Actuellement averses de à proximité.

 
 
 

Pays :   A   B   C   D   E   F   G   H   I   J   K   L   M   N   O   P   Q   R   S   T   U   V   W   Y   Z

 

Partenaires :  Info Météo avec Met'info
Météo Marine avec MeteoMarine.net
Infos Site  |  Infos Légales  |  Crédits  |  Confidentialité
Contactez-nous  |  Ajouter aux favoris
© 2013-2018 METAR - Tous droits réservés